Weather reports worldwide

Advertisment
Reinosa, Spain (8032): temperature & dewpoint: 03.12.2019 22:00:00 - 09.12.2019 22:00:00 (CET)Reinosa, Spain (8032): wind speed & gusts: 03.12.2019 22:00:00 - 09.12.2019 22:00:00 (CET)Reinosa, Spain (8032): wind direction: 03.12.2019 22:00:00 - 09.12.2019 22:00:00 (CET)Reinosa, Spain (8032): precipitation: 03.12.2019 22:00:00 - 09.12.2019 22:00:00 (CET)
Date & Time tt [°C] td [°C] ff [km/h] ff [kn] fx [km/h] fx [kn] dd rr [mm]
09.12.2019 22:00:00 - - - - - - - -
09.12.2019 21:00:00 5,8 2,3 9 5 19 10 N 0,0
09.12.2019 20:00:00 6,2 2,7 13 7 22 12 N 0,0
09.12.2019 19:00:00 6,5 2,9 12 7 27 14 NNW -
09.12.2019 18:00:00 6,5 2,7 14 8 37 20 NNW 0,0
09.12.2019 17:00:00 7,3 2,3 22 12 34 18 N 0,0
09.12.2019 16:00:00 8,4 1,1 8 5 37 20 NW 0,0
09.12.2019 15:00:00 8,5 1,7 10 5 40 22 WNW 0,0
09.12.2019 14:00:00 9,3 1,3 18 10 52 28 NW 0,0
09.12.2019 13:00:00 8,9 0,4 31 17 62 33 NW -
09.12.2019 12:00:00 8,5 0,6 24 13 53 29 NW 0,0
09.12.2019 11:00:00 8,0 0,9 34 19 63 34 NNW 0,0
09.12.2019 10:00:00 4,2 -0,5 8 5 16 9 SSE 0,0
09.12.2019 09:00:00 1,1 -1,4 2 1 16 9 NNE 0,0
09.12.2019 08:00:00 1,4 0,4 5 3 17 9 SSW 0,0
09.12.2019 07:00:00 -0,3 -1,2 3 1 9 5 SSW -
09.12.2019 06:00:00 -1,6 -2,5 4 2 10 5 W 0,0
09.12.2019 05:00:00 1,4 0,4 4 2 22 12 S 0,0
09.12.2019 04:00:00 0,2 -0,7 4 2 13 7 S 0,0
09.12.2019 03:00:00 0,9 0,0 4 2 12 7 SW 0,0
09.12.2019 02:00:00 2,0 1,1 6 4 13 7 W 0,0
09.12.2019 01:00:00 3,4 2,3 5 3 11 6 WSW -
09.12.2019 00:00:00 3,7 2,9 5 3 13 7 NW 0,0
08.12.2019 23:00:00 3,4 2,3 2 1 8 4 SSW 0,0
08.12.2019 22:00:00 2,7 1,7 3 1 8 4 W 0,0
08.12.2019 21:00:00 4,2 3,2 1 1 11 6 W 0,0
08.12.2019 20:00:00 6,1 5,0 4 2 9 5 SSE 0,0
08.12.2019 19:00:00 6,9 5,6 1 0 6 4 SSW -
08.12.2019 18:00:00 6,5 5,1 3 2 11 6 SSW 0,0
08.12.2019 17:00:00 7,3 5,8 5 3 14 8 SSE 0,0
08.12.2019 16:00:00 7,0 5,5 8 4 13 7 S 0,0
08.12.2019 15:00:00 6,8 5,3 6 3 11 6 SSE 0,0
08.12.2019 14:00:00 6,7 5,1 3 2 18 10 SSE 0,1
08.12.2019 13:00:00 6,1 5,0 6 4 14 8 S -
08.12.2019 12:00:00 5,9 5,0 5 3 12 6 SSE 0,1
08.12.2019 11:00:00 4,4 3,6 4 2 10 5 WSW 0,0
08.12.2019 10:00:00 3,9 3,0 4 2 7 4 W 0,0
08.12.2019 09:00:00 2,8 1,9 4 2 7 4 W 0,0
08.12.2019 08:00:00 2,4 1,5 3 2 8 4 W 0,0
08.12.2019 07:00:00 2,0 1,1 5 3 9 5 W -
08.12.2019 06:00:00 1,9 1,1 4 2 9 5 W 0,0
08.12.2019 05:00:00 1,4 0,6 5 3 11 6 W 0,0
08.12.2019 04:00:00 1,7 0,9 6 3 9 5 W 0,0
08.12.2019 03:00:00 2,4 1,5 6 3 11 6 WNW 0,0
08.12.2019 02:00:00 2,6 1,7 5 3 13 7 W 0,0
08.12.2019 01:00:00 2,8 1,9 6 3 9 5 W -
08.12.2019 00:00:00 2,6 1,7 1 1 6 4 N 0,0
07.12.2019 23:00:00 2,1 1,3 2 1 13 7 SW 0,0
07.12.2019 22:00:00 2,5 1,7 3 1 13 7 SSE 0,0
07.12.2019 21:00:00 3,1 2,3 5 3 14 8 SW 0,0
07.12.2019 20:00:00 3,7 2,7 6 3 13 7 SSW 0,0
07.12.2019 19:00:00 4,5 3,2 5 3 14 8 SSW -
07.12.2019 18:00:00 5,2 2,7 5 3 12 7 SSW 0,0
07.12.2019 17:00:00 9,1 3,4 10 5 18 10 SSE 0,0
07.12.2019 16:00:00 11,6 2,1 11 6 17 9 SSE 0,0
07.12.2019 15:00:00 11,9 1,9 9 5 13 7 SSE 0,0
07.12.2019 14:00:00 10,8 2,9 6 3 13 7 ESE 0,0
07.12.2019 13:00:00 10,4 3,9 2 1 5 3 S -
07.12.2019 12:00:00 7,7 3,9 1 1 6 3 WSW 0,0
07.12.2019 11:00:00 4,5 2,9 3 2 8 4 WNW 0,0
07.12.2019 10:00:00 1,7 0,9 4 2 8 4 WSW 0,0
07.12.2019 09:00:00 -0,4 -1,2 4 2 12 6 WSW 0,0
07.12.2019 08:00:00 -1,9 -2,7 3 1 11 6 WNW 0,0
07.12.2019 07:00:00 -1,7 -2,5 3 1 8 4 WNW -
07.12.2019 06:00:00 -0,7 -1,4 8 4 10 6 W 0,0
07.12.2019 05:00:00 -0,7 -1,4 4 2 11 6 W 0,0
07.12.2019 04:00:00 -0,6 -1,4 3 2 9 5 WNW 0,0
07.12.2019 03:00:00 0,7 -0,3 4 2 8 5 W 0,0
07.12.2019 02:00:00 0,2 -0,7 5 3 6 4 WNW 0,0
07.12.2019 01:00:00 2,7 1,9 1 0 6 4 SW -
07.12.2019 00:00:00 3,0 2,1 4 2 9 5 W 0,0
06.12.2019 23:00:00 3,0 1,9 1 1 6 4 SSW 0,0
06.12.2019 22:00:00 1,8 0,6 5 3 7 4 WNW 0,0
06.12.2019 21:00:00 4,1 2,7 3 2 5 3 W 0,0
06.12.2019 20:00:00 5,4 3,4 3 2 5 3 NNW 0,0
06.12.2019 19:00:00 5,9 3,4 4 2 9 5 W -
06.12.2019 18:00:00 5,9 2,3 1 0 13 7 SW 0,0
06.12.2019 17:00:00 8,9 3,9 8 4 13 7 SSE 0,0
06.12.2019 16:00:00 9,8 3,8 6 3 17 9 SE 0,0
06.12.2019 15:00:00 10,5 4,1 12 7 18 10 SSE 0,0
06.12.2019 14:00:00 9,9 3,4 14 7 21 11 SSE 0,0
06.12.2019 13:00:00 9,8 3,2 1 0 6 3 SW -
06.12.2019 12:00:00 7,1 3,2 1 1 5 3 NE 0,0
06.12.2019 11:00:00 2,9 1,5 3 2 7 4 NW 0,0
06.12.2019 10:00:00 -0,4 -1,4 0 0 8 4 W 0,0
06.12.2019 09:00:00 -1,7 -2,7 3 1 7 4 WSW 0,0
06.12.2019 08:00:00 -2,6 -3,6 2 1 5 3 NW 0,0
06.12.2019 07:00:00 -2,5 -3,6 0 0 10 6 SW -
06.12.2019 06:00:00 -2,0 -3,0 4 2 7 4 SW 0,0
06.12.2019 05:00:00 -2,5 -3,6 0 0 7 4 W 0,0
06.12.2019 04:00:00 -1,9 -3,3 3 2 6 4 WNW 0,0
06.12.2019 03:00:00 -0,9 -2,2 2 1 8 5 NNW 0,0
06.12.2019 02:00:00 -0,8 -2,2 4 2 13 7 WNW 0,0
06.12.2019 01:00:00 -1,4 -2,5 5 3 10 5 NW -
06.12.2019 00:00:00 -0,4 -1,7 4 2 8 5 WNW 0,0
05.12.2019 23:00:00 1,4 0,0 4 2 10 5 W 0,0
05.12.2019 22:00:00 1,8 0,4 5 3 9 5 W 0,0
05.12.2019 21:00:00 3,4 1,5 4 2 12 7 WNW 0,0
05.12.2019 20:00:00 5,6 2,9 9 5 14 8 N 0,0
05.12.2019 19:00:00 5,9 3,8 5 3 16 9 NNW -
05.12.2019 18:00:00 6,2 4,6 14 8 22 12 NNW 0,0
05.12.2019 17:00:00 6,5 4,5 11 6 17 9 NNW 0,0
05.12.2019 16:00:00 6,6 4,8 11 6 25 14 NNW 0,0
05.12.2019 15:00:00 6,9 4,6 11 6 24 13 NNW 0,0
05.12.2019 14:00:00 6,8 4,6 13 7 27 14 NNW 0,0
05.12.2019 13:00:00 6,8 4,6 16 8 26 14 NNW -
05.12.2019 12:00:00 6,3 4,3 5 3 23 12 N 0,0
05.12.2019 11:00:00 6,1 3,9 11 6 20 11 NNW 0,0
05.12.2019 10:00:00 6,2 3,6 8 5 20 11 NNW 0,0
05.12.2019 09:00:00 5,8 2,1 12 7 42 23 N 0,0
05.12.2019 08:00:00 5,6 2,1 12 7 37 20 N 0,0
05.12.2019 07:00:00 5,3 3,8 16 9 34 18 N -
05.12.2019 06:00:00 5,6 4,3 19 10 34 18 N 0,0
05.12.2019 05:00:00 5,7 4,6 13 7 34 18 NNW 0,0
05.12.2019 04:00:00 5,5 4,3 25 14 36 20 NNW 0,0
05.12.2019 03:00:00 5,8 4,1 3 2 34 18 NNW 0,0
05.12.2019 02:00:00 5,7 3,8 18 10 41 22 W 0,0
05.12.2019 01:00:00 5,4 3,4 17 9 39 21 W -
05.12.2019 00:00:00 5,2 3,0 21 11 37 20 WNW 0,0
04.12.2019 23:00:00 4,9 1,5 24 13 45 24 WNW 0,0
04.12.2019 22:00:00 5,0 1,5 17 9 48 26 NW 0,0
04.12.2019 21:00:00 4,7 0,9 22 12 40 22 NNW 0,0
04.12.2019 20:00:00 4,1 0,4 24 13 46 25 NNW 0,0
04.12.2019 19:00:00 4,3 0,2 16 9 29 15 N -
04.12.2019 18:00:00 3,9 0,4 4 2 16 9 ENE 0,0
04.12.2019 17:00:00 5,4 -0,7 5 3 23 12 NE 0,0
04.12.2019 16:00:00 7,2 -0,5 14 7 24 13 ENE 0,0
04.12.2019 15:00:00 8,5 0,2 11 6 21 11 ENE 0,0
04.12.2019 14:00:00 8,8 0,4 8 5 16 8 NE 0,0
04.12.2019 13:00:00 8,9 1,3 2 1 5 3 ESE -
04.12.2019 12:00:00 4,8 0,9 1 1 7 4 S 0,0
04.12.2019 11:00:00 2,8 0,6 4 2 9 5 W 0,0
04.12.2019 10:00:00 0,0 -1,0 1 1 6 3 NNW 0,0
04.12.2019 09:00:00 -2,4 -3,6 5 3 8 4 N 0,0
04.12.2019 08:00:00 -2,1 -3,6 4 2 9 5 NNW 0,0
04.12.2019 07:00:00 -0,5 -2,5 2 1 10 6 N -
04.12.2019 06:00:00 0,3 -3,0 5 3 12 7 NE 0,0
04.12.2019 05:00:00 1,4 -3,0 3 2 15 8 E 0,0
04.12.2019 04:00:00 3,6 -2,5 8 5 16 9 S 0,0
04.12.2019 03:00:00 1,4 -2,0 9 5 16 9 SSE 0,0
04.12.2019 02:00:00 1,0 -1,7 8 4 15 8 SSE 0,0
04.12.2019 01:00:00 -1,4 -3,0 4 2 11 6 NE -
04.12.2019 00:00:00 -1,7 -3,6 5 3 15 8 N 0,0
03.12.2019 23:00:00 -0,2 -2,2 12 6 19 10 SE 0,0
03.12.2019 22:00:00 -2,6 -3,9 6 3 10 6 E 0,0

tt = temperature
td = dewpoint
ff = wind speed
fx = gusts
dd = wind direction
rr = precipitation

Next stations